EHRD

Rotterdam Airport

Rotterdam, The Netherlands
METAR EHRD 232225Z AUTO 07014KT 040V100 9999 NCD M01/M06 Q1022 NOSIG
Observed Flight Rules
Feb-23 @ 22:25 UTC (13 minutes ago) Visual Flight Rules
Wind Visibility Clouds
70° at 14 knots 10,000+ meters
  • Clear skies
Temperatures Readings
Current -1°C / 30°F
Dewpoint -6°C / 21°F
Humidity 69%
Altimeter 30.18" Hg
Pressure 1022 hPa
Elevation -5
METAR EHRD 232225Z AUTO 07014KT 040V100 9999 NCD M01/M06 Q1022 NOSIG
Observed Flight Rules
Feb-23 @ 22:25 UTC
(13 minutes ago)
VFR
Wind Visibility
70° at 14 knots 10,000+ meters
Clouds
  • Clear skies
Temperature Dewpoint
-1°C / 30°F -6°C / 21°F
Humidity Altimeter Pressure
69% 30.18" Hg 1022 hPa